Time;durP1;ratioP1;P1;durP2;ratioP2;P2;SDS_P1;SDS_P2;PMS_P1;PMS_P2;Temp;Humidity;BMP_temperature;BMP_pressure;BME280_temperature;BME280_humidity;BME280_pressure;Samples;Min_cycle;Max_cycle;Signal;HPM_P1;HPM_P2
2023/06/13 00:02:34;;;;;;;6.20;3.17;;;;;;;23.36;64.28;100316.31;4992061;28;20045;-79
2023/06/13 00:05:21;;;;;;;6.47;3.45;;;;;;;23.30;63.68;100317.16;5014143;28;20072;-79
2023/06/13 00:08:06;;;;;;;5.43;3.50;;;;;;;23.25;63.89;100315.63;5002025;28;20052;-80
2023/06/13 00:10:51;;;;;;;4.00;2.83;;;;;;;23.46;64.31;100316.63;5006089;28;20044;-79
2023/06/13 00:13:39;;;;;;;6.63;3.47;;;;;;;23.27;64.10;100315.19;5004361;28;20052;-80
2023/06/13 00:16:25;;;;;;;4.07;2.70;;;;;;;23.14;64.60;100305.81;5006012;28;20052;-79
2023/06/13 00:19:11;;;;;;;4.80;2.83;;;;;;;22.93;65.40;100313.13;4992233;28;20052;-79
2023/06/13 00:21:57;;;;;;;7.97;3.38;;;;;;;22.74;66.14;100299.81;5020367;28;20414;-79
2023/06/13 00:24:41;;;;;;;4.18;3.22;;;;;;;22.67;65.73;100294.28;5018959;28;20053;-79
2023/06/13 00:27:26;;;;;;;5.30;3.33;;;;;;;22.55;66.16;100290.00;5001448;28;20053;-79
2023/06/13 00:30:11;;;;;;;4.38;3.38;;;;;;;22.48;66.86;100294.81;4991226;28;20053;-79
2023/06/13 00:32:59;;;;;;;5.43;3.53;;;;;;;22.38;66.29;100293.69;5005765;28;20064;-79
2023/06/13 00:35:44;;;;;;;4.20;3.60;;;;;;;22.50;66.35;100298.75;5014015;28;20416;-80
2023/06/13 00:38:30;;;;;;;3.28;2.75;;;;;;;22.36;67.44;100301.59;5010674;28;20557;-79
2023/06/13 00:41:15;;;;;;;5.15;3.58;;;;;;;22.24;67.08;100309.59;5017718;28;20176;-79
2023/06/13 00:44:00;;;;;;;3.90;3.30;;;;;;;22.43;65.94;100314.63;4995151;28;20053;-80
2023/06/13 00:46:47;;;;;;;7.45;4.30;;;;;;;22.30;65.87;100319.84;5005385;28;20045;-78
2023/06/13 00:49:33;;;;;;;5.03;3.67;;;;;;;22.36;64.30;100325.75;5000771;28;20418;-78
2023/06/13 00:52:21;;;;;;;5.85;2.95;;;;;;;22.21;63.39;100319.50;5003272;28;20411;-78
2023/06/13 00:55:06;;;;;;;4.68;2.97;;;;;;;22.37;63.11;100310.72;4990581;28;20057;-78
2023/06/13 00:57:55;;;;;;;3.08;2.50;;;;;;;22.21;63.68;100307.63;4984732;28;20053;-79
2023/06/13 01:00:40;;;;;;;2.60;2.40;;;;;;;22.36;62.52;100307.16;5004424;28;20053;-78
2023/06/13 01:03:25;;;;;;;11.70;2.88;;;;;;;22.12;63.18;100302.53;5000190;28;20049;-79
2023/06/13 01:06:10;;;;;;;5.45;2.83;;;;;;;22.05;63.32;100297.81;5011046;28;20434;-79
2023/06/13 01:08:58;;;;;;;4.65;2.10;;;;;;;21.95;63.04;100306.97;5013798;28;20053;-78
2023/06/13 01:11:57;;;;;;;2.40;1.80;;;;;;;21.91;63.38;100311.69;5014780;28;20041;-78
2023/06/13 01:14:43;;;;;;;4.50;2.40;;;;;;;21.87;63.96;100313.69;5006428;28;20045;-79
2023/06/13 01:17:36;;;;;;;3.45;1.92;;;;;;;22.16;64.10;100317.16;5004176;28;20053;-79
2023/06/13 01:20:21;;;;;;;2.13;1.85;;;;;;;22.11;63.49;100315.59;5017924;28;20045;-78
2023/06/13 01:23:20;;;;;;;2.65;1.60;;;;;;;22.07;62.69;100294.66;5016159;28;20053;-78
2023/06/13 01:26:15;;;;;;;2.05;1.67;;;;;;;21.94;64.08;100293.53;5004288;28;20097;-78
2023/06/13 01:29:01;;;;;;;3.25;2.05;;;;;;;22.34;61.78;100306.00;5003366;28;20422;-78
2023/06/13 01:31:48;;;;;;;3.38;1.70;;;;;;;22.61;62.82;100315.31;4985321;28;20049;-79
2023/06/13 01:34:34;;;;;;;1.95;1.45;;;;;;;22.25;62.33;100316.72;5004935;28;20053;-79
2023/06/13 01:37:20;;;;;;;1.77;1.42;;;;;;;22.15;62.78;100310.81;5018044;28;20053;-79
2023/06/13 01:40:07;;;;;;;2.33;1.70;;;;;;;22.06;63.04;100313.25;5006303;28;20045;-78
2023/06/13 01:42:52;;;;;;;5.53;1.70;;;;;;;22.18;62.90;100312.81;5001201;28;20053;-78
2023/06/13 01:45:40;;;;;;;1.52;1.38;;;;;;;22.10;62.93;100322.31;5015359;28;20517;-78
2023/06/13 01:48:59;;;;;;;1.90;1.45;;;;;;;22.16;63.56;100317.16;4990250;28;20053;-78
2023/06/13 01:52:07;;;;;;;2.80;1.60;;;;;;;22.07;62.38;100312.06;5003906;28;20065;-78
2023/06/13 01:55:20;;;;;;;2.72;1.75;;;;;;;22.31;63.55;100301.25;4986673;28;20053;-78
2023/06/13 01:58:15;;;;;;;4.07;1.70;;;;;;;22.21;62.90;100302.09;5036437;23;20045;-79
2023/06/13 02:01:06;;;;;;;2.53;1.42;;;;;;;22.47;62.35;100294.03;4970484;28;20045;-79
2023/06/13 02:03:51;;;;;;;1.88;1.50;;;;;;;22.50;62.85;100297.97;4975100;28;20049;-79
2023/06/13 02:06:36;;;;;;;1.52;1.13;;;;;;;22.63;61.05;100307.38;4968268;28;20053;-78
2023/06/13 02:09:21;;;;;;;2.13;1.20;;;;;;;22.61;62.04;100315.31;4961495;28;20054;-79
2023/06/13 02:12:08;;;;;;;2.42;1.40;;;;;;;22.35;61.97;100313.88;4943424;28;20043;-79
2023/06/13 02:14:53;;;;;;;2.38;1.48;;;;;;;22.81;61.63;100308.06;4947671;28;20062;-79
2023/06/13 02:17:39;;;;;;;1.40;1.20;;;;;;;22.52;62.22;100309.44;4927774;28;20415;-79
2023/06/13 02:20:24;;;;;;;6.07;1.38;;;;;;;22.62;60.16;100311.34;4944272;28;20066;-79
2023/06/13 02:23:09;;;;;;;2.33;1.25;;;;;;;22.57;60.03;100320.09;4938906;28;20043;-79
2023/06/13 02:25:55;;;;;;;1.33;0.93;;;;;;;22.47;60.96;100313.41;4942706;28;20050;-79
2023/06/13 02:28:40;;;;;;;2.63;1.23;;;;;;;22.46;60.01;100309.06;4932176;28;20050;-77
2023/06/13 02:31:25;;;;;;;1.45;1.20;;;;;;;22.61;60.75;100316.09;4946461;28;20504;-78
2023/06/13 02:34:11;;;;;;;1.45;1.23;;;;;;;22.68;61.06;100318.03;4947528;28;20050;-79
2023/06/13 02:36:55;;;;;;;0.75;0.70;;;;;;;22.48;59.43;100311.44;4936750;28;20062;-79
2023/06/13 02:39:40;;;;;;;2.38;0.80;;;;;;;22.55;59.78;100312.16;4933991;28;20051;-79
2023/06/13 02:42:27;;;;;;;1.23;0.93;;;;;;;22.57;59.82;100309.00;4950143;28;20070;-79
2023/06/13 02:45:12;;;;;;;1.52;0.95;;;;;;;22.52;58.43;100301.13;4941586;28;20054;-79
2023/06/13 02:47:57;;;;;;;1.60;0.80;;;;;;;22.56;59.42;100302.66;4925589;28;20427;-78
2023/06/13 02:50:42;;;;;;;4.20;0.60;;;;;;;22.32;59.32;100302.81;4944716;28;20062;-78
2023/06/13 02:53:27;;;;;;;3.63;1.38;;;;;;;22.63;57.80;100301.03;4937111;28;20050;-78
2023/06/13 02:56:12;;;;;;;192.65;36.90;;;;;;;22.52;58.57;100318.53;4940918;28;20050;-78
2023/06/13 02:58:57;;;;;;;135.88;28.98;;;;;;;22.55;59.27;100312.16;4946042;28;20512;-78
2023/06/13 03:01:41;;;;;;;34.33;6.68;;;;;;;22.32;58.68;100314.69;4936631;28;20508;-77
2023/06/13 03:04:31;;;;;;;29.23;6.30;;;;;;;22.62;58.83;100311.34;4940867;28;20062;-78
2023/06/13 03:07:16;;;;;;;7.57;2.10;;;;;;;22.43;58.29;100309.09;4953897;28;20054;-76
2023/06/13 03:10:03;;;;;;;8.02;1.88;;;;;;;22.51;59.97;100319.72;4922713;29;20050;-78
2023/06/13 03:12:53;;;;;;;6.75;2.38;;;;;;;22.66;58.51;100316.84;4952709;28;20042;-78
2023/06/13 03:15:40;;;;;;;6.88;1.17;;;;;;;22.23;58.40;100319.91;4948274;28;20061;-78
2023/06/13 03:18:25;;;;;;;1.55;0.75;;;;;;;21.91;60.08;100314.47;4946964;28;20050;-77
2023/06/13 03:21:12;;;;;;;2.28;0.85;;;;;;;21.85;60.13;100312.50;4952754;28;20058;-77
2023/06/13 03:23:57;;;;;;;0.82;0.47;;;;;;;21.58;60.63;100309.44;4919463;28;20404;-77
2023/06/13 03:26:43;;;;;;;0.80;0.60;;;;;;;21.26;62.70;100315.84;4942139;28;20050;-77
2023/06/13 03:29:30;;;;;;;2.22;0.90;;;;;;;21.06;61.44;100322.13;4943255;28;20054;-77
2023/06/13 03:32:15;;;;;;;1.02;0.60;;;;;;;21.26;61.23;100326.91;4936184;28;20046;-77
2023/06/13 03:35:00;;;;;;;1.85;0.70;;;;;;;21.32;61.37;100322.53;4924557;28;20046;-77
2023/06/13 03:37:45;;;;;;;0.63;0.50;;;;;;;21.36;60.95;100324.50;4950289;28;20050;-77
2023/06/13 03:40:30;;;;;;;1.17;0.60;;;;;;;21.34;61.22;100317.38;4940928;29;20043;-78
2023/06/13 03:43:15;;;;;;;2.35;1.25;;;;;;;21.50;59.98;100316.97;4933840;28;20051;-77
2023/06/13 03:46:00;;;;;;;1.55;0.80;;;;;;;21.91;60.85;100310.91;4933591;28;20050;-77
2023/06/13 03:48:46;;;;;;;1.85;1.05;;;;;;;22.09;58.58;100309.69;4948137;28;20054;-78
2023/06/13 03:51:31;;;;;;;2.75;0.57;;;;;;;22.20;59.20;100306.06;4926472;29;20042;-78
2023/06/13 03:54:16;;;;;;;1.02;0.60;;;;;;;22.46;59.66;100302.72;4945678;28;20054;-76
2023/06/13 03:57:01;;;;;;;7.72;0.82;;;;;;;22.32;57.87;100295.31;4938250;28;20416;-77
2023/06/13 03:59:46;;;;;;;1.67;0.80;;;;;;;22.52;58.05;100290.81;4947634;28;20050;-77
2023/06/13 04:02:31;;;;;;;2.67;0.52;;;;;;;22.24;57.31;100290.22;4927666;29;20042;-77
2023/06/13 04:05:16;;;;;;;1.58;0.60;;;;;;;22.39;59.32;100298.03;4945188;28;20059;-76
2023/06/13 04:08:01;;;;;;;3.00;0.63;;;;;;;22.34;58.29;100295.69;4942151;28;20046;-77
2023/06/13 04:10:46;;;;;;;0.80;0.60;;;;;;;22.41;58.39;100297.63;4925111;28;20058;-76
2023/06/13 04:13:31;;;;;;;2.83;0.60;;;;;;;22.54;58.37;100290.44;4941151;28;20528;-76
2023/06/13 04:16:18;;;;;;;3.72;0.70;;;;;;;22.73;57.51;100287.13;4948521;28;20074;-77
2023/06/13 04:19:03;;;;;;;;;;;;;;;22.56;57.65;100285.25;4943366;28;20043;-77
2023/06/13 04:21:48;;;;;;;1.20;0.90;;;;;;;22.71;57.15;100288.72;4932498;28;20307;-76
2023/06/13 04:24:32;;;;;;;6.97;1.00;;;;;;;22.73;58.03;100284.38;4935657;29;20050;-78
2023/06/13 04:27:27;;;;;;;15.70;1.13;;;;;;;22.79;57.77;100279.19;4930412;28;20054;-78
2023/06/13 04:30:13;;;;;;;2.55;0.60;;;;;;;22.97;56.14;100282.56;4932296;28;20057;-77
2023/06/13 04:32:58;;;;;;;10.45;1.38;;;;;;;23.06;55.83;100296.00;4951197;28;20058;-77
2023/06/13 04:35:48;;;;;;;3.60;0.70;;;;;;;22.98;57.37;100296.03;4940744;28;20062;-77
2023/06/13 04:38:34;;;;;;;1.10;0.60;;;;;;;22.66;57.72;100295.47;4930175;29;20046;-78
2023/06/13 04:41:19;;;;;;;3.88;0.75;;;;;;;22.61;57.46;100301.44;4941600;28;20058;-77
2023/06/13 04:44:05;;;;;;;0.90;0.60;;;;;;;22.06;58.69;100307.72;4936569;28;20050;-78
2023/06/13 04:46:50;;;;;;;1.05;0.82;;;;;;;21.62;60.14;100305.47;4954069;28;20167;-79
2023/06/13 04:49:34;;;;;;;1.20;0.80;;;;;;;21.65;60.46;100314.94;4935672;29;20074;-79
2023/06/13 04:52:23;;;;;;;2.45;0.80;;;;;;;21.46;60.30;100318.16;4938427;28;20047;-79
2023/06/13 04:55:08;;;;;;;0.75;0.65;;;;;;;21.57;60.12;100316.97;4949838;28;20058;-79
2023/06/13 04:57:52;;;;;;;1.50;0.70;;;;;;;21.78;61.19;100327.19;4929817;28;20042;-79
2023/06/13 05:00:37;;;;;;;0.80;0.80;;;;;;;21.46;60.18;100332.00;4943948;28;20050;-79
2023/06/13 05:03:21;;;;;;;1.17;0.50;;;;;;;21.49;59.98;100334.75;4931171;28;20050;-79
2023/06/13 05:06:06;;;;;;;0.50;0.40;;;;;;;21.37;60.64;100337.16;4956111;28;20515;-79
2023/06/13 05:08:52;;;;;;;0.93;0.50;;;;;;;21.32;61.17;100335.59;4937916;28;20066;-79
2023/06/13 05:11:37;;;;;;;4.03;0.60;;;;;;;21.28;61.01;100349.41;4945147;28;20216;-80
2023/06/13 05:14:22;;;;;;;3.60;0.70;;;;;;;21.28;61.21;100343.09;4940077;28;20050;-79
2023/06/13 05:17:07;;;;;;;0.95;0.60;;;;;;;21.25;60.90;100364.03;4936094;28;20054;-79
2023/06/13 05:19:53;;;;;;;1.95;0.80;;;;;;;21.03;60.87;100348.59;4950608;28;20050;-80
2023/06/13 05:22:39;;;;;;;2.45;0.50;;;;;;;20.95;60.50;100347.00;4924930;28;20067;-79
2023/06/13 05:25:24;;;;;;;3.63;0.50;;;;;;;20.96;61.07;100340.31;4951199;28;20062;-78
2023/06/13 05:28:09;;;;;;;9.45;0.88;;;;;;;21.16;59.41;100340.72;4935713;28;20062;-79
2023/06/13 05:30:53;;;;;;;10.90;1.10;;;;;;;21.73;60.65;100345.00;4947833;28;20046;-80
2023/06/13 05:33:38;;;;;;;3.05;1.63;;;;;;;21.85;58.00;100343.75;4941236;28;20054;-80
2023/06/13 05:36:23;;;;;;;4.25;0.98;;;;;;;21.73;57.96;100346.97;4927128;28;20038;-80
2023/06/13 05:39:08;;;;;;;11.93;2.00;;;;;;;21.89;58.62;100355.59;4930733;28;20054;-81
2023/06/13 05:41:52;;;;;;;5.30;1.08;;;;;;;21.65;58.49;100356.47;4956120;28;20050;-79
2023/06/13 05:44:37;;;;;;;1.35;0.90;;;;;;;21.49;58.86;100358.84;4946141;28;20070;-80
2023/06/13 05:47:22;;;;;;;3.83;0.70;;;;;;;21.50;59.51;100355.69;4948706;28;20062;-80
2023/06/13 05:50:06;;;;;;;4.80;1.10;;;;;;;21.48;59.35;100366.41;4923755;29;20058;-81
2023/06/13 05:52:51;;;;;;;2.55;0.93;;;;;;;21.12;60.24;100351.78;4939219;29;20042;-80
2023/06/13 05:55:36;;;;;;;3.65;1.13;;;;;;;21.48;59.76;100362.84;4949345;28;20534;-79
2023/06/13 05:58:21;;;;;;;1.35;1.00;;;;;;;21.51;60.08;100362.03;4952096;28;20046;-79
2023/06/13 06:01:06;;;;;;;1.75;0.90;;;;;;;21.46;60.56;100362.44;4928447;29;20054;-77
2023/06/13 06:03:51;;;;;;;2.25;1.15;;;;;;;21.38;60.07;100358.91;4945315;28;20046;-79
2023/06/13 06:06:36;;;;;;;2.88;1.23;;;;;;;21.70;59.34;100350.53;4944295;29;20120;-80
2023/06/13 06:09:21;;;;;;;3.03;0.90;;;;;;;21.31;60.62;100361.66;4942157;29;20058;-81
2023/06/13 06:12:06;;;;;;;3.20;1.27;;;;;;;21.12;61.05;100351.78;4954708;29;20050;-79
2023/06/13 06:14:51;;;;;;;3.15;1.35;;;;;;;20.94;61.64;100353.72;4955816;28;20054;-79
2023/06/13 06:17:35;;;;;;;2.83;1.17;;;;;;;21.04;61.70;100346.63;4957844;28;20259;-79
2023/06/13 06:20:20;;;;;;;6.47;1.20;;;;;;;21.01;62.42;100350.19;4965221;28;20046;-78
2023/06/13 06:23:05;;;;;;;;;;;;;;;21.15;61.33;100356.53;4974996;28;20053;-78
2023/06/13 06:25:49;;;;;;;2.88;1.80;;;;;;;21.05;61.66;100353.72;4974778;28;20287;-80
2023/06/13 06:28:34;;;;;;;2.15;1.63;;;;;;;21.16;61.68;100354.56;4973167;28;20054;-80
2023/06/13 06:31:19;;;;;;;;;;;;;;;21.22;61.52;100353.78;4974851;28;20058;-79
2023/06/13 06:34:04;;;;;;;1.42;1.10;;;;;;;21.14;61.75;100349.41;4961476;28;20395;-81
2023/06/13 06:36:48;;;;;;;1.95;0.90;;;;;;;21.11;61.74;100350.19;4959594;28;20554;-80
2023/06/13 06:39:34;;;;;;;1.42;1.00;;;;;;;21.28;60.80;100352.16;4974267;28;20050;-79
2023/06/13 06:42:18;;;;;;;2.75;1.55;;;;;;;21.29;60.25;100344.66;4959713;28;20455;-78
2023/06/13 06:45:25;;;;;;;1.67;1.17;;;;;;;21.40;60.87;100355.72;4964323;28;20049;-79
2023/06/13 06:48:10;;;;;;;7.85;1.42;;;;;;;21.51;59.77;100353.72;4959222;28;20050;-81
2023/06/13 06:50:56;;;;;;;5.18;0.93;;;;;;;21.91;58.58;100353.22;4972864;28;20058;-79
2023/06/13 06:53:42;;;;;;;2.05;0.80;;;;;;;21.73;58.65;100349.75;4977067;28;20046;-80
2023/06/13 06:56:27;;;;;;;1.70;0.90;;;;;;;21.91;58.72;100347.69;4967907;28;20054;-79
2023/06/13 06:59:12;;;;;;;1.60;1.13;;;;;;;22.04;57.81;100353.63;4973949;28;20050;-79
2023/06/13 07:01:57;;;;;;;1.73;0.90;;;;;;;21.80;58.72;100341.41;4964287;28;20053;-79
2023/06/13 07:04:42;;;;;;;3.97;1.10;;;;;;;22.08;58.38;100349.66;4975826;28;20049;-78
2023/06/13 07:07:27;;;;;;;2.30;1.10;;;;;;;21.86;58.53;100347.31;4939368;28;20050;-78
2023/06/13 07:10:12;;;;;;;4.05;0.70;;;;;;;22.06;59.07;100352.03;4937380;28;20054;-79
2023/06/13 07:12:57;;;;;;;1.85;1.15;;;;;;;22.13;58.24;100346.47;4946687;28;20420;-83
2023/06/13 07:15:41;;;;;;;4.32;1.13;;;;;;;21.88;59.14;100340.19;4938703;29;20054;-78
2023/06/13 07:18:29;;;;;;;5.22;1.00;;;;;;;22.07;58.79;100334.22;4950006;28;20054;-79
2023/06/13 07:21:14;;;;;;;1.92;1.17;;;;;;;21.90;59.48;100346.09;4936446;29;20054;-80
2023/06/13 07:23:59;;;;;;;3.50;0.95;;;;;;;22.18;59.37;100342.47;4927126;29;20058;-78
2023/06/13 07:26:44;;;;;;;3.95;1.17;;;;;;;21.96;58.93;100341.78;4933693;29;20054;-80
2023/06/13 07:29:30;;;;;;;7.82;1.27;;;;;;;22.23;59.35;100341.28;4919512;29;20067;-80
2023/06/13 07:32:15;;;;;;;4.07;1.70;;;;;;;22.14;59.48;100333.41;4938544;29;20050;-77
2023/06/13 07:35:01;;;;;;;3.13;1.08;;;;;;;22.41;58.39;100323.34;4938433;29;20058;-80
2023/06/13 07:37:45;;;;;;;4.53;1.42;;;;;;;22.41;57.53;100322.56;4929279;28;20100;-78
2023/06/13 07:40:30;;;;;;;4.53;0.85;;;;;;;22.60;58.35;100324.84;4953442;28;20424;-80
2023/06/13 07:43:15;;;;;;;12.80;1.50;;;;;;;22.18;57.72;100337.72;4926236;29;20051;-79
2023/06/13 07:46:00;;;;;;;3.15;0.98;;;;;;;22.39;58.58;100334.06;4943843;28;20058;-76
2023/06/13 07:48:45;;;;;;;1.25;0.85;;;;;;;22.26;59.31;100334.91;4952851;28;20046;-76
2023/06/13 07:51:30;;;;;;;3.30;0.82;;;;;;;22.30;58.51;100327.41;4940366;29;20058;-76
2023/06/13 07:54:14;;;;;;;4.68;1.88;;;;;;;22.12;59.19;100322.72;4948679;28;20350;-78
2023/06/13 07:56:59;;;;;;;7.80;1.02;;;;;;;21.95;59.34;100320.00;4965024;28;20057;-77
2023/06/13 07:59:44;;;;;;;3.60;1.58;;;;;;;21.96;60.03;100316.06;4973213;28;20046;-76
2023/06/13 08:02:31;;;;;;;2.10;1.10;;;;;;;22.05;60.17;100317.19;4974055;28;20054;-75
2023/06/13 08:05:16;;;;;;;2.35;1.20;;;;;;;21.99;59.67;100312.50;4971282;28;20049;-77
2023/06/13 08:08:00;;;;;;;3.35;1.65;;;;;;;21.82;60.45;100308.56;4952976;28;20049;-78
2023/06/13 08:10:45;;;;;;;6.65;1.20;;;;;;;21.80;60.08;100316.47;4960355;28;20046;-77
2023/06/13 08:13:29;;;;;;;6.10;1.30;;;;;;;21.91;60.46;100317.25;4968000;28;20069;-76
2023/06/13 08:16:14;;;;;;;5.13;1.30;;;;;;;22.12;59.53;100317.19;4958483;28;20058;-77
2023/06/13 08:18:58;;;;;;;1.52;1.00;;;;;;;22.12;57.59;100317.19;4966122;28;20055;-76
2023/06/13 08:21:45;;;;;;;1.95;1.00;;;;;;;22.29;57.56;100314.72;4955095;28;20050;-79
2023/06/13 08:24:30;;;;;;;1.38;1.13;;;;;;;22.29;57.25;100318.28;4940905;29;20069;-80
2023/06/13 08:27:15;;;;;;;2.67;1.40;;;;;;;22.27;57.05;100323.44;4948704;28;20058;-80
2023/06/13 08:29:59;;;;;;;2.78;1.38;;;;;;;22.27;59.55;100323.44;4959326;28;20046;-80
2023/06/13 08:32:46;;;;;;;3.70;1.98;;;;;;;22.14;59.31;100325.09;4943198;28;20042;-78
2023/06/13 08:35:31;;;;;;;1.70;1.17;;;;;;;22.09;59.21;100320.78;4939297;28;20058;-80
2023/06/13 08:38:16;;;;;;;4.15;0.95;;;;;;;22.02;57.80;100323.56;4947169;28;20049;-77
2023/06/13 08:41:01;;;;;;;3.40;1.23;;;;;;;22.09;57.31;100322.75;4953511;28;20050;-80
2023/06/13 08:43:46;;;;;;;2.75;1.05;;;;;;;22.21;56.63;100318.72;4953885;28;20074;-80
2023/06/13 08:46:33;;;;;;;1.67;0.77;;;;;;;22.45;56.37;100324.13;4955261;28;20061;-77
2023/06/13 08:49:17;;;;;;;1.55;1.00;;;;;;;22.23;55.26;100321.88;4958667;28;20046;-79
2023/06/13 08:52:08;;;;;;;1.40;0.88;;;;;;;22.15;54.76;100332.19;4957575;28;20054;-78
2023/06/13 08:54:58;;;;;;;2.00;0.70;;;;;;;22.20;54.37;100317.16;4942397;28;20408;-77
2023/06/13 08:57:45;;;;;;;5.80;1.60;;;;;;;22.28;54.40;100316.72;4958837;28;20550;-77
2023/06/13 09:00:35;;;;;;;1.85;1.23;;;;;;;22.48;55.11;100316.97;4980641;28;20448;-77
2023/06/13 09:03:20;;;;;;;2.03;0.80;;;;;;;22.64;54.67;100324.81;4979302;28;20424;-78
2023/06/13 09:06:07;;;;;;;2.20;1.00;;;;;;;22.57;54.63;100320.88;4963981;28;20054;-78
2023/06/13 09:08:53;;;;;;;1.42;1.00;;;;;;;23.03;53.96;100315.00;4975031;28;20054;-77
2023/06/13 09:11:38;;;;;;;4.45;1.63;;;;;;;23.31;52.52;100319.53;4965556;28;20054;-78
2023/06/13 09:14:22;;;;;;;2.75;1.17;;;;;;;23.52;52.61;100307.44;4976068;28;20416;-77
2023/06/13 09:17:07;;;;;;;;;;;;;;;23.68;50.83;100310.44;4975848;28;20050;-77
2023/06/13 09:19:52;;;;;;;5.25;1.25;;;;;;;23.70;49.98;100308.03;4975311;28;19913;-77
2023/06/13 09:22:37;;;;;;;3.50;1.17;;;;;;;23.76;49.77;100305.59;4963657;28;20419;-78
2023/06/13 09:25:22;;;;;;;2.10;1.58;;;;;;;23.68;48.38;100304.88;4922783;29;20050;-78
2023/06/13 09:28:26;;;;;;;3.00;1.45;;;;;;;23.70;48.96;100299.69;4927317;29;20055;-79
2023/06/13 09:31:11;;;;;;;2.35;1.42;;;;;;;23.54;50.56;100299.50;4938116;29;20066;-77
2023/06/13 09:34:00;;;;;;;3.25;1.50;;;;;;;23.59;50.50;100295.47;4943397;28;20046;-76
2023/06/13 09:36:45;;;;;;;1.60;1.38;;;;;;;23.28;50.06;100302.91;4956526;28;20062;-77
2023/06/13 09:39:31;;;;;;;4.45;1.63;;;;;;;23.46;50.42;100298.00;4961109;28;20053;-76
2023/06/13 09:42:20;;;;;;;1.88;1.50;;;;;;;23.45;48.75;100299.19;4968107;28;20428;-78
2023/06/13 09:45:08;;;;;;;4.28;1.60;;;;;;;23.44;49.18;100295.59;4954259;28;20050;-77
2023/06/13 09:47:53;;;;;;;3.17;1.40;;;;;;;23.38;48.50;100299.22;4945523;28;20054;-77
2023/06/13 09:50:40;;;;;;;4.03;1.25;;;;;;;23.61;48.76;100293.06;4944226;28;20058;-77
2023/06/13 09:53:25;;;;;;;8.80;1.75;;;;;;;23.74;49.10;100302.44;4948431;28;20053;-77
2023/06/13 09:56:10;;;;;;;1.98;1.17;;;;;;;23.88;48.23;100294.72;4964043;28;20058;-78
2023/06/13 09:58:55;;;;;;;4.72;1.58;;;;;;;24.00;47.07;100287.81;4963304;28;20061;-78
2023/06/13 10:01:41;;;;;;;2.53;1.30;;;;;;;23.98;46.87;100289.44;4954628;29;20054;-76
2023/06/13 10:04:26;;;;;;;10.60;1.95;;;;;;;24.07;46.28;100292.50;4943234;29;20416;-79
2023/06/13 10:07:11;;;;;;;1.40;1.23;;;;;;;24.22;46.11;100288.38;4955684;29;20736;-77
2023/06/13 10:09:56;;;;;;;3.58;1.50;;;;;;;24.29;45.15;100282.69;4950756;28;20074;-79
2023/06/13 10:13:03;;;;;;;2.97;1.52;;;;;;;24.21;45.13;100284.00;4955370;28;20456;-78
2023/06/13 10:15:51;;;;;;;4.50;2.08;;;;;;;24.08;44.89;100285.72;4946413;28;20046;-77
2023/06/13 10:18:39;;;;;;;2.70;1.38;;;;;;;24.07;45.65;100284.97;4957583;28;20058;-78
2023/06/13 10:21:24;;;;;;;4.75;1.50;;;;;;;24.14;45.87;100287.63;4955712;28;20050;-77
2023/06/13 10:24:11;;;;;;;7.70;1.50;;;;;;;23.99;46.33;100283.47;4946278;28;20522;-78
2023/06/13 10:26:59;;;;;;;3.17;1.65;;;;;;;24.01;45.51;100278.28;4941208;28;20077;-77
2023/06/13 10:30:20;;;;;;;2.13;1.27;;;;;;;24.01;45.87;100283.84;4939671;28;20050;-77
2023/06/13 10:33:11;;;;;;;2.75;1.42;;;;;;;24.08;45.71;100277.41;4944657;28;20086;-77
2023/06/13 10:36:07;;;;;;;5.72;1.30;;;;;;;24.05;45.81;100281.03;4938613;28;20416;-77
2023/06/13 10:39:21;;;;;;;2.92;1.33;;;;;;;24.02;46.33;100276.31;4959200;28;20046;-77
2023/06/13 10:42:24;;;;;;;1.92;1.23;;;;;;;24.07;46.37;100264.72;4945571;28;20057;-77
2023/06/13 10:45:15;;;;;;;1.70;1.40;;;;;;;24.12;45.92;100267.84;4974517;28;20049;-78
2023/06/13 10:48:05;;;;;;;2.60;1.00;;;;;;;24.10;46.23;100255.53;4974538;28;20045;-77
2023/06/13 10:50:50;;;;;;;1.88;1.48;;;;;;;24.08;45.90;100260.72;4973468;28;20053;-79
2023/06/13 10:53:37;;;;;;;3.10;1.10;;;;;;;24.04;44.63;100255.22;4956816;28;20050;-78
2023/06/13 10:56:29;;;;;;;3.90;1.42;;;;;;;24.09;44.75;100251.19;4942340;29;20069;-77
2023/06/13 10:59:16;;;;;;;3.30;1.27;;;;;;;24.24;45.24;100249.81;4937182;29;20531;-77
2023/06/13 11:02:01;;;;;;;1.92;1.33;;;;;;;24.25;45.32;100245.84;4925653;29;20523;-77
2023/06/13 11:04:51;;;;;;;3.80;1.23;;;;;;;24.32;44.88;100254.06;4957856;28;20054;-77
2023/06/13 11:07:36;;;;;;;2.60;1.27;;;;;;;24.17;45.66;100247.16;4945496;28;20050;-77
2023/06/13 11:10:23;;;;;;;4.22;1.27;;;;;;;24.22;45.50;100241.91;4961498;28;20411;-78
2023/06/13 11:13:26;;;;;;;2.70;1.58;;;;;;;24.16;45.53;100234.44;4967995;28;20050;-78
2023/06/13 11:16:22;;;;;;;2.47;1.48;;;;;;;24.11;45.34;100238.47;4923636;28;20050;-76
2023/06/13 11:19:21;;;;;;;1.88;1.17;;;;;;;24.14;45.58;100229.28;4952412;28;20046;-78
2023/06/13 11:22:12;;;;;;;3.33;1.40;;;;;;;24.10;46.59;100230.53;4952783;28;20038;-78
2023/06/13 11:24:59;;;;;;;2.30;1.35;;;;;;;24.16;46.04;100226.88;4936774;28;20069;-78
2023/06/13 11:27:46;;;;;;;2.63;1.42;;;;;;;24.14;45.33;100222.94;4955491;28;20050;-77
2023/06/13 11:30:32;;;;;;;2.40;1.48;;;;;;;24.20;45.41;100229.63;4941416;29;20051;-77
2023/06/13 11:33:19;;;;;;;2.47;1.35;;;;;;;24.15;44.69;100225.31;4950205;28;20432;-79
2023/06/13 11:36:04;;;;;;;3.25;1.85;;;;;;;24.30;44.38;100223.13;4954387;28;20050;-78
2023/06/13 11:39:04;;;;;;;4.38;1.80;;;;;;;24.51;45.89;100222.00;4938873;28;20047;-78
2023/06/13 11:41:49;;;;;;;7.10;1.88;;;;;;;24.54;45.25;100227.50;4954640;28;20050;-77
2023/06/13 11:44:35;;;;;;;2.70;1.60;;;;;;;24.71;44.89;100220.88;4957810;29;20523;-77
2023/06/13 11:47:20;;;;;;;3.65;1.75;;;;;;;24.67;46.05;100209.03;4950808;28;20054;-80
2023/06/13 11:50:05;;;;;;;2.63;1.65;;;;;;;24.64;45.32;100207.06;4945547;28;20546;-78
2023/06/13 11:53:09;;;;;;;5.22;1.50;;;;;;;24.55;45.12;100206.84;4953622;28;20054;-78
2023/06/13 11:56:04;;;;;;;2.28;1.45;;;;;;;24.65;45.03;100200.31;4936074;28;20421;-77
2023/06/13 11:58:51;;;;;;;1.80;1.50;;;;;;;24.55;44.12;100206.03;4940920;29;20054;-78
2023/06/13 12:01:36;;;;;;;2.53;1.70;;;;;;;24.48;45.50;100203.41;4964487;28;20054;-79
2023/06/13 12:04:25;;;;;;;4.60;1.75;;;;;;;24.49;44.68;100191.06;4951572;28;20054;-79
2023/06/13 12:07:09;;;;;;;1.50;1.40;;;;;;;24.58;44.11;100192.06;4941514;28;20155;-79
2023/06/13 12:09:54;;;;;;;2.33;1.38;;;;;;;24.60;44.51;100189.66;4943446;28;20811;-81
2023/06/13 12:12:40;;;;;;;3.10;1.33;;;;;;;24.41;43.09;100190.41;4948576;28;20054;-80
2023/06/13 12:15:25;;;;;;;2.92;1.63;;;;;;;24.56;43.11;100186.16;4952293;28;20046;-81
2023/06/13 12:18:10;;;;;;;4.18;1.25;;;;;;;24.60;42.75;100189.66;4948622;28;20058;-79
2023/06/13 12:20:56;;;;;;;6.43;1.75;;;;;;;24.65;43.07;100191.19;4956882;28;20523;-80
2023/06/13 12:23:41;;;;;;;5.65;1.83;;;;;;;24.64;44.08;100182.03;4965123;28;20059;-80
2023/06/13 12:26:30;;;;;;;3.33;1.83;;;;;;;24.71;43.64;100181.16;4947331;29;20057;-79
2023/06/13 12:29:16;;;;;;;8.80;2.47;;;;;;;24.79;44.20;100176.25;4943607;28;20532;-79
2023/06/13 12:32:05;;;;;;;1.70;1.40;;;;;;;24.86;42.90;100181.69;4960377;28;20049;-78
2023/06/13 12:34:51;;;;;;;3.17;1.67;;;;;;;24.88;42.93;100174.53;4956622;28;20046;-77
2023/06/13 12:37:38;;;;;;;5.03;1.67;;;;;;;25.00;41.99;100167.53;4957487;28;20062;-77
2023/06/13 12:40:29;;;;;;;3.60;1.25;;;;;;;25.18;41.61;100167.19;4962513;28;20054;-81
2023/06/13 12:43:15;;;;;;;2.00;1.33;;;;;;;25.27;41.78;100167.41;4964350;28;20053;-78
2023/06/13 12:46:00;;;;;;;2.92;1.40;;;;;;;25.17;43.16;100163.63;4942137;28;20427;-79
2023/06/13 12:48:46;;;;;;;6.88;1.13;;;;;;;25.22;41.97;100159.56;4961843;28;20046;-78
2023/06/13 12:51:31;;;;;;;2.00;1.00;;;;;;;25.32;42.27;100153.78;4954814;28;20054;-76
2023/06/13 12:54:18;;;;;;;2.75;1.50;;;;;;;25.58;41.30;100156.84;4960660;28;20045;-77
2023/06/13 12:57:11;;;;;;;3.40;1.52;;;;;;;25.49;41.92;100152.63;4951537;28;20054;-77
2023/06/13 12:59:56;;;;;;;2.00;1.38;;;;;;;25.49;42.01;100140.69;4922093;28;20046;-76